Main page
METAR-TAF:

METAR-TAF

Airports :

Scatsta, Shetland, Scotland

Scatsta Airport

latitude: 60-26N, longitude: 001-18W, elevation: 22 m

Current weather observation

The report was made 22 minutes ago, at 02:20 UTC
Wind 10 kt from the North
Temperature 12°C
Humidity 94%
Pressure 1017 hPa
Visibility 10 km or more

METAR: EGPM 240220Z AUTO 01010KT 9999 OVC006/// 12/11 Q1017

Time: 03:42 (02:42 UTC)

Forecast

The report was made 39 minutes ago, at 02:03 UTC
Forecast valid from 24 at 03 UTC to 24 at 12 UTC
Wind 9 kt from the North
Visibility 10 km or more
Scattered clouds at a height of 700 ft
Broken clouds at a height of 1000 ft
Temporary
from 24 at 03 UTC to 24 at 12 UTC
Visibility: 7000 m
Broken clouds at a height of 600 ft
Probability 40% :
Temporary
from 24 at 03 UTC to 24 at 09 UTC
Visibility: 4000 m
Broken clouds at a height of 400 ft
mist

TAF: EGPM 240203Z 2403/2412 36009KT 9999 SCT007 BKN010 TEMPO 2403/2412 7000 BKN006 PROB40 TEMPO 2403/2409 4000 BR BKN004

Weather observations and forecasts of more than 4000 airports (METAR and TAF reports).

The available stations are represented by yellow and red dots on the map.

Hover mouse over dot to see the name of the station.

Then click to see weather observations and forecasts.

To change the map : click on the green buttons with a black cross to zoom in, on the green button with a dash to zoom out, or on the green arrows for adjacent maps.


METAR-TAF: